Antigo, WI

11:55 AM CDT on June 22, 2017 (GMT -0500)
Langlade County

Weather History for KAIG - January, 2013

Change the Weather History Date:

Wednesday, January 9, 2013

  Actual Average Record
Temperature  
Mean Temperature 23 °F -  
Max Temperature 34 °F 18 °F 46 °F (2002)
Min Temperature 12 °F 0 °F -33 °F (1977)
Degree Days  
Heating Degree Days 42    
Moisture  
Dew Point 22 °F    
Average Humidity 76    
Maximum Humidity 92    
Minimum Humidity 59    
Precipitation  
Precipitation 0.00 in - - ()
Sea Level Pressure  
Sea Level Pressure 30.04 in    
Wind  
Wind Speed 16 mph (West)    
Max Wind Speed 26 mph    
Max Gust Speed 36 mph    
Visibility 10 miles    
Events      
Averages and records for this station are not official NWS values.
T = Trace of Precipitation, MM = Missing Value Source: NWS Daily Summary

Daily Weather History Graph

Daily Weather History Graph

Search for Another Location

Airport or City:

Trip Planner

Search our weather history database for the weather conditions in past years. The results will help you decide how hot, cold, wet, or windy it might be!

Date:

Astronomy

Jan. 09, 2013 Rise Set
Actual Time 7:34 AM CST 4:33 PM CST
Civil Twilight 7:00 AM CST 5:06 PM CST
Nautical Twilight 6:24 AM CST 5:43 PM CST
Astronomical Twilight 5:48 AM CST 6:19 PM CST
Moon 5:13 AM CST (1/9) 2:34 PM CST (1/9)
Length of Visible Light 10h 06m
Length of Day
8h 59m
Waning Crescent, 6% of the Moon is Illuminated
Jan 9
Waning Crescent
Jan 11
New
Jan 18
First Quarter
Jan 26
Full
Feb 3
Last Quarter

Hourly Weather History & Observations

Time (CST) Temp. Windchill Dew Point Humidity Pressure Visibility Wind Dir Wind Speed Gust Speed Precip Events Conditions
12:15 AM 33.1 °F 22.6 °F 29.1 °F 85% 29.76 in 10.0 mi WSW 16.1 mph - N/A   Overcast
12:35 AM 32.9 °F 21.6 °F 28.9 °F 85% 29.76 in 10.0 mi WSW 18.4 mph - N/A   Overcast
12:55 AM 32.9 °F 23.2 °F 28.9 °F 85% 29.76 in 10.0 mi WSW 13.8 mph 21.9 mph N/A   Overcast
1:15 AM 32.9 °F 22.4 °F 28.9 °F 85% 29.76 in 10.0 mi WSW 16.1 mph - N/A   Overcast
1:35 AM 32.9 °F 21.3 °F 28.8 °F 85% 29.77 in 10.0 mi West 19.6 mph 23.0 mph N/A   Overcast
1:55 AM 32.9 °F 21.6 °F 28.4 °F 84% 29.78 in 10.0 mi WSW 18.4 mph 29.9 mph N/A   Overcast
2:15 AM 32.5 °F 20.8 °F 28.4 °F 85% 29.78 in 10.0 mi West 19.6 mph 26.5 mph N/A   Overcast
2:35 AM 32.0 °F 19.2 °F 27.0 °F 82% 29.79 in 10.0 mi West 23.0 mph 28.8 mph N/A   Overcast
2:55 AM 31.5 °F 19.1 °F 26.8 °F 83% 29.80 in 10.0 mi West 20.7 mph - N/A   Overcast
3:15 AM 30.9 °F 18.7 °F 26.6 °F 84% 29.81 in 10.0 mi West 19.6 mph 24.2 mph N/A   Overcast
3:35 AM 30.6 °F 19.4 °F 26.4 °F 85% 29.82 in 10.0 mi West 16.1 mph 21.9 mph N/A   Overcast
3:55 AM 30.6 °F 19.0 °F 26.1 °F 83% 29.82 in 10.0 mi West 17.3 mph 25.3 mph N/A   Overcast
4:15 AM 30.0 °F 20.0 °F 25.7 °F 84% 29.81 in 10.0 mi West 12.7 mph 17.3 mph N/A   Overcast
4:35 AM 30.0 °F 19.1 °F 25.7 °F 84% 29.82 in 10.0 mi West 15.0 mph 18.4 mph N/A   Overcast
4:55 AM 30.0 °F 19.5 °F 25.7 °F 84% 29.83 in 10.0 mi WSW 13.8 mph 20.7 mph N/A   Overcast
5:15 AM 29.3 °F 17.7 °F 25.7 °F 86% 29.84 in 10.0 mi West 16.1 mph 19.6 mph N/A   Overcast
5:35 AM 29.3 °F 19.1 °F 25.7 °F 86% 29.84 in 10.0 mi West 12.7 mph 23.0 mph N/A   Overcast
5:55 AM 28.2 °F 17.2 °F 25.0 °F 88% 29.84 in 10.0 mi WSW 13.8 mph - N/A   Scattered Clouds
6:15 AM 27.5 °F 15.4 °F 24.8 °F 90% 29.85 in 10.0 mi WSW 16.1 mph - N/A   Scattered Clouds
6:35 AM 27.5 °F 15.9 °F 24.8 °F 90% 29.86 in 10.0 mi WSW 15.0 mph 20.7 mph N/A   Mostly Cloudy
6:55 AM 27.5 °F 15.0 °F 24.6 °F 89% 29.86 in 10.0 mi WSW 17.3 mph 21.9 mph N/A   Mostly Cloudy
7:15 AM 28.4 °F 15.4 °F 24.8 °F 86% 29.86 in 10.0 mi WSW 19.6 mph 27.6 mph N/A   Overcast
7:35 AM 29.3 °F 16.2 °F 25.3 °F 85% 29.87 in 10.0 mi West 20.7 mph 29.9 mph N/A   Overcast
7:55 AM 29.8 °F 16.6 °F 25.3 °F 83% 29.88 in 10.0 mi West 21.9 mph 35.7 mph N/A   Overcast
8:15 AM 29.7 °F 15.8 °F 24.6 °F 81% 29.88 in 10.0 mi West 24.2 mph 32.2 mph N/A   Overcast
8:35 AM 29.7 °F 16.4 °F 24.4 °F 81% 29.88 in 10.0 mi West 21.9 mph 33.4 mph N/A   Overcast
8:55 AM 30.2 °F 17.4 °F 23.9 °F 77% 29.89 in 10.0 mi West 20.7 mph 32.2 mph N/A   Mostly Cloudy
9:15 AM 30.6 °F 17.0 °F 24.1 °F 77% 29.90 in 10.0 mi West 24.2 mph 33.4 mph N/A   Overcast
9:35 AM 30.6 °F 19.0 °F 24.1 °F 77% 29.91 in 10.0 mi West 17.3 mph 31.1 mph N/A   Overcast
9:55 AM 31.1 °F 18.6 °F 24.1 °F 75% 29.92 in 10.0 mi West 20.7 mph 32.2 mph N/A   Overcast
10:15 AM 31.6 °F 18.4 °F 23.4 °F 71% 29.93 in 10.0 mi West 24.2 mph 32.2 mph N/A   Overcast
10:35 AM 32.0 °F 20.1 °F 23.0 °F 69% 29.94 in 10.0 mi West 19.6 mph 31.1 mph N/A   Overcast
10:55 AM 32.0 °F 18.4 °F 22.8 °F 69% 29.95 in 10.0 mi West 26.5 mph 34.5 mph N/A   Mostly Cloudy
11:15 AM 32.5 °F 20.8 °F 22.8 °F 67% 29.96 in 10.0 mi West 19.6 mph 33.4 mph N/A   Mostly Cloudy
11:35 AM 32.9 °F 21.6 °F 22.5 °F 65% 29.97 in 10.0 mi West 18.4 mph 28.8 mph N/A   Mostly Cloudy
11:55 AM 33.3 °F 22.1 °F 22.6 °F 65% 29.97 in 10.0 mi WNW 18.4 mph 26.5 mph N/A   Mostly Cloudy
12:15 PM 33.8 °F 22.5 °F 22.6 °F 64% 29.98 in 10.0 mi WNW 19.6 mph - N/A   Scattered Clouds
12:35 PM 33.8 °F 22.5 °F 21.6 °F 61% 30.00 in 10.0 mi West 19.6 mph 31.1 mph N/A   Scattered Clouds
12:55 PM 33.8 °F 22.2 °F 21.2 °F 60% 30.01 in 10.0 mi West 20.7 mph 28.8 mph N/A   Scattered Clouds
1:15 PM 34.2 °F 22.6 °F 21.2 °F 59% 30.03 in 10.0 mi WNW 20.7 mph 26.5 mph N/A   Clear
1:35 PM 34.3 °F 23.2 °F 21.4 °F 59% 30.06 in 10.0 mi West 19.6 mph 26.5 mph N/A   Scattered Clouds
1:55 PM 34.7 °F 24.0 °F 21.7 °F 59% 30.09 in 10.0 mi West 18.4 mph - N/A   Scattered Clouds
2:15 PM 34.7 °F 24.3 °F 21.9 °F 60% 30.10 in 10.0 mi West 17.3 mph - N/A   Scattered Clouds
2:35 PM 34.3 °F 22.6 °F 21.7 °F 60% 30.12 in 10.0 mi West 21.9 mph - N/A   Scattered Clouds
2:55 PM 33.8 °F 22.2 °F 21.2 °F 60% 30.15 in 10.0 mi West 20.7 mph 28.8 mph N/A   Clear
3:15 PM 33.8 °F 22.5 °F 21.2 °F 60% 30.15 in 10.0 mi West 19.6 mph 25.3 mph N/A   Clear
3:35 PM 33.4 °F 23.5 °F 21.6 °F 62% 30.16 in 10.0 mi West 15.0 mph 21.9 mph N/A   Clear
3:55 PM 32.9 °F 22.8 °F 21.2 °F 62% 30.19 in 10.0 mi West 15.0 mph 21.9 mph N/A   Clear
4:15 PM 32.0 °F 21.2 °F 21.2 °F 64% 30.20 in 10.0 mi West 16.1 mph 23.0 mph N/A   Clear
4:35 PM 31.3 °F 20.3 °F 21.2 °F 66% 30.22 in 10.0 mi West 16.1 mph - N/A   Clear
4:55 PM 30.6 °F 20.2 °F 20.7 °F 67% 30.23 in 10.0 mi West 13.8 mph 23.0 mph N/A   Clear
5:15 PM 30.0 °F 20.0 °F 20.3 °F 67% 30.25 in 10.0 mi West 12.7 mph - N/A   Clear
5:35 PM 29.5 °F 19.9 °F 20.1 °F 68% 30.26 in 10.0 mi West 11.5 mph - N/A   Clear
5:55 PM 28.4 °F 19.7 °F 19.6 °F 70% 30.27 in 10.0 mi WSW 9.2 mph - N/A   Clear
6:15 PM 27.5 °F 17.4 °F 19.4 °F 72% 30.27 in 10.0 mi West 11.5 mph - N/A   Clear
6:35 PM 27.5 °F 17.4 °F 19.6 °F 72% 30.28 in 10.0 mi West 11.5 mph - N/A   Clear
6:55 PM 27.0 °F 17.3 °F 19.4 °F 73% 30.29 in 10.0 mi West 10.4 mph - N/A   Clear
7:15 PM 26.8 °F 17.1 °F 19.0 °F 73% 30.30 in 10.0 mi West 10.4 mph - N/A   Clear
7:35 PM 26.4 °F 16.0 °F 18.7 °F 73% 30.31 in 10.0 mi West 11.5 mph - N/A   Clear
7:55 PM 25.9 °F 16.6 °F 18.3 °F 73% 30.32 in 10.0 mi West 9.2 mph - N/A   Clear
8:15 PM 25.2 °F 15.7 °F 18.0 °F 74% 30.33 in 10.0 mi West 9.2 mph - N/A   Clear
8:35 PM 24.6 °F 17.7 °F 17.6 °F 75% 30.33 in 10.0 mi West 5.8 mph - N/A   Clear
8:55 PM 23.0 °F 17.0 °F 16.5 °F 76% 30.34 in 10.0 mi WSW 4.6 mph - N/A   Clear
9:15 PM 21.4 °F 16.6 °F 16.0 °F 80% 30.35 in 10.0 mi WSW 3.5 mph - N/A   Clear
9:35 PM 17.2 °F - 12.9 °F 83% 30.36 in 10.0 mi Calm Calm - N/A   Clear
9:55 PM 18.7 °F - 14.7 °F 85% 30.36 in 10.0 mi Calm Calm - N/A   Clear
10:15 PM 18.1 °F - 14.4 °F 85% 30.37 in 10.0 mi Calm Calm - N/A   Clear
10:35 PM 16.3 °F - 12.9 °F 86% 30.36 in 10.0 mi Calm Calm - N/A   Clear
10:55 PM 16.0 °F - 13.1 °F 88% 30.34 in 10.0 mi Calm Calm - N/A   Clear
11:15 PM 12.9 °F 6.9 °F 9.9 °F 88% 30.33 in 10.0 mi NE 3.5 mph - N/A   Clear
11:35 PM 13.5 °F - 11.3 °F 91% 30.33 in 10.0 mi Calm Calm - N/A   Clear
11:55 PM 13.6 °F - 11.7 °F 92% 30.33 in 10.0 mi Calm Calm - N/A   Clear